createdAt,value
2022-12-03T00:03:51.535Z,14.59
2022-12-03T00:08:55.135Z,14.61
2022-12-03T00:13:58.669Z,14.60
2022-12-03T00:19:03.658Z,14.61
2022-12-03T00:24:07.807Z,14.61
2022-12-03T00:29:11.467Z,14.61
2022-12-03T00:34:16.391Z,14.60
2022-12-03T00:39:19.837Z,14.62
2022-12-03T00:44:23.338Z,14.60
2022-12-03T00:49:28.224Z,14.61
2022-12-03T00:54:32.459Z,14.56
2022-12-03T00:59:36.033Z,14.65
2022-12-03T01:04:41.056Z,14.62
2022-12-03T01:09:44.557Z,14.60
2022-12-03T01:14:48.078Z,14.55
2022-12-03T01:19:53.577Z,14.59
2022-12-03T01:24:57.082Z,14.58
2022-12-03T01:30:00.607Z,14.58
2022-12-03T01:35:06.332Z,14.52
2022-12-03T01:40:12.568Z,14.55
2022-12-03T01:45:22.771Z,14.53
2022-12-03T01:50:32.256Z,14.55
2022-12-03T01:55:35.749Z,14.58
2022-12-03T02:00:39.297Z,14.57
2022-12-03T02:05:44.439Z,14.53
2022-12-03T02:10:47.927Z,14.55
2022-12-03T02:15:51.630Z,14.52
2022-12-03T02:21:02.592Z,14.52
2022-12-03T02:26:07.504Z,14.50
2022-12-03T02:31:11.088Z,14.51
2022-12-03T02:36:14.725Z,14.49
2022-12-03T02:41:34.666Z,14.50
2022-12-03T02:46:38.206Z,14.49
2022-12-03T02:51:41.777Z,14.46
2022-12-03T02:56:46.602Z,14.50
2022-12-03T03:01:50.353Z,14.46
2022-12-03T03:06:54.017Z,14.45
2022-12-03T03:11:58.917Z,14.46
2022-12-03T03:17:02.376Z,14.43
2022-12-03T03:22:05.994Z,14.41
2022-12-03T03:27:11.190Z,14.40
2022-12-03T03:32:14.676Z,14.45
2022-12-03T03:37:18.310Z,14.45
2022-12-03T03:42:23.607Z,14.39
2022-12-03T03:47:27.096Z,14.41
2022-12-03T03:52:30.611Z,14.42
2022-12-03T03:57:35.570Z,14.41
2022-12-03T04:02:39.133Z,14.41
2022-12-03T04:07:42.650Z,14.41
2022-12-03T04:12:56.562Z,14.36
2022-12-03T04:18:17.367Z,14.38
2022-12-03T04:23:22.330Z,14.39
2022-12-03T04:28:47.137Z,14.40
2022-12-03T04:34:22.456Z,14.41
2022-12-03T04:39:26.045Z,14.35
2022-12-03T04:44:39.990Z,14.36
2022-12-03T04:49:45.713Z,14.34
2022-12-03T04:54:49.166Z,14.39
2022-12-03T04:59:54.034Z,14.41
2022-12-03T05:04:57.496Z,14.36
2022-12-03T05:10:00.992Z,14.40
2022-12-03T05:15:07.718Z,14.30
2022-12-03T05:20:29.585Z,14.29
2022-12-03T05:25:33.082Z,14.32
2022-12-03T05:30:38.109Z,14.28
2022-12-03T05:35:41.700Z,14.31
2022-12-03T05:40:45.137Z,14.29
2022-12-03T05:45:50.128Z,14.28
2022-12-03T05:50:53.545Z,14.34
2022-12-03T05:55:57.208Z,14.30
2022-12-03T06:01:02.142Z,14.32
2022-12-03T06:06:06.124Z,14.26
2022-12-03T06:11:09.594Z,14.32
2022-12-03T06:16:14.615Z,14.26
2022-12-03T06:21:18.122Z,14.25
2022-12-03T06:26:21.607Z,14.23
2022-12-03T06:31:26.899Z,14.26
2022-12-03T06:36:30.476Z,14.25
2022-12-03T06:41:33.869Z,14.20
2022-12-03T06:46:38.859Z,14.25
2022-12-03T06:51:42.323Z,14.25
2022-12-03T06:56:45.881Z,14.20
2022-12-03T07:01:50.759Z,14.18
2022-12-03T07:06:54.197Z,14.18
2022-12-03T07:11:57.590Z,14.27
2022-12-03T07:17:02.386Z,14.18
2022-12-03T07:22:05.897Z,14.19
2022-12-03T07:27:09.364Z,14.17
2022-12-03T07:32:14.226Z,14.14
2022-12-03T07:37:22.678Z,14.17
2022-12-03T07:42:26.727Z,14.23
2022-12-03T07:47:46.792Z,14.17
2022-12-03T07:52:50.166Z,14.20
2022-12-03T07:57:53.599Z,14.25
2022-12-03T08:02:58.388Z,14.20
2022-12-03T08:08:02.144Z,14.18
2022-12-03T08:13:09.138Z,14.19
2022-12-03T08:18:16.742Z,14.22
2022-12-03T08:23:21.689Z,14.23
2022-12-03T08:28:27.213Z,14.13
2022-12-03T08:33:35.538Z,14.07
2022-12-03T08:38:38.958Z,14.18
2022-12-03T08:43:43.957Z,14.25
2022-12-03T08:48:49.734Z,14.09
2022-12-03T08:53:59.799Z,14.08
2022-12-03T08:59:22.053Z,14.14
2022-12-03T09:04:30.284Z,14.06
2022-12-03T09:09:34.843Z,13.97
2022-12-03T09:14:38.282Z,14.02
2022-12-03T09:19:46.043Z,14.04
2022-12-03T09:24:49.922Z,14.04
2022-12-03T09:29:53.319Z,14.04
2022-12-03T09:34:58.117Z,13.96
2022-12-03T09:40:01.699Z,14.01
2022-12-03T09:45:11.033Z,14.06
2022-12-03T09:50:18.197Z,14.04
2022-12-03T09:55:23.934Z,14.05
2022-12-03T10:00:29.364Z,14.03
2022-12-03T10:05:34.690Z,14.09
2022-12-03T10:10:38.906Z,14.08
2022-12-03T10:15:42.403Z,14.03
2022-12-03T10:20:47.535Z,14.10
2022-12-03T10:25:52.636Z,14.72
2022-12-03T10:30:56.846Z,15.11
2022-12-03T10:36:17.639Z,15.44
2022-12-03T10:41:25.608Z,15.48
2022-12-03T10:46:29.390Z,15.36
2022-12-03T10:51:34.385Z,15.29
2022-12-03T10:56:37.962Z,15.05
2022-12-03T11:01:41.626Z,15.52
2022-12-03T11:06:46.653Z,15.74
2022-12-03T11:11:50.648Z,15.76
2022-12-03T11:17:12.082Z,16.04
2022-12-03T11:22:41.275Z,16.09
2022-12-03T11:27:45.190Z,16.17
2022-12-03T11:33:22.125Z,16.42
2022-12-03T11:38:47.394Z,16.53
2022-12-03T11:44:02.943Z,16.69
2022-12-03T11:49:33.894Z,16.81
2022-12-03T11:54:39.114Z,16.96
2022-12-03T12:00:01.120Z,17.07
2022-12-03T12:05:18.944Z,17.24
2022-12-03T12:10:46.368Z,17.36
2022-12-03T12:15:50.510Z,17.48
2022-12-03T12:20:54.068Z,17.47
2022-12-03T12:26:08.416Z,17.60
2022-12-03T12:31:12.462Z,18.37
2022-12-03T12:36:15.890Z,20.00
2022-12-03T12:41:20.645Z,19.79
2022-12-03T12:46:47.400Z,20.00
2022-12-03T12:51:49.621Z,20.43
2022-12-03T12:56:54.417Z,20.63
2022-12-03T13:01:57.846Z,20.92
2022-12-03T13:07:01.297Z,21.36
2022-12-03T13:12:07.763Z,21.38
2022-12-03T13:17:15.730Z,21.68
2022-12-03T13:22:22.067Z,21.64
2022-12-03T13:27:29.922Z,21.83
2022-12-03T13:32:35.162Z,21.46
2022-12-03T13:37:39.252Z,21.22
2022-12-03T13:42:46.674Z,20.48
2022-12-03T13:47:52.250Z,19.78
2022-12-03T13:52:56.157Z,19.34
2022-12-03T13:58:01.127Z,18.85
2022-12-03T14:03:04.760Z,18.44
2022-12-03T14:08:08.297Z,18.29
2022-12-03T14:13:13.257Z,18.02
2022-12-03T14:18:16.750Z,17.95
2022-12-03T14:23:20.283Z,17.87
2022-12-03T14:28:25.192Z,17.77
2022-12-03T14:33:28.709Z,17.68
2022-12-03T14:38:32.210Z,17.70
2022-12-03T14:43:37.205Z,17.62
2022-12-03T14:48:40.696Z,17.58
2022-12-03T14:53:44.229Z,17.52
2022-12-03T14:58:49.165Z,17.51
2022-12-03T15:03:52.696Z,17.53
2022-12-03T15:08:56.237Z,17.47
2022-12-03T15:14:01.111Z,17.48
2022-12-03T15:19:04.621Z,17.44
2022-12-03T15:24:08.953Z,17.46
2022-12-03T15:29:13.844Z,17.44
2022-12-03T15:34:22.151Z,17.49
2022-12-03T15:39:26.541Z,17.36
2022-12-03T15:44:31.441Z,17.27
2022-12-03T15:49:34.981Z,17.19
2022-12-03T15:54:38.486Z,17.16
2022-12-03T15:59:43.440Z,17.14
2022-12-03T16:04:46.974Z,17.20
2022-12-03T16:09:50.599Z,17.23
2022-12-03T16:14:55.722Z,17.05
2022-12-03T16:19:59.209Z,16.91
2022-12-03T16:25:03.466Z,16.84
2022-12-03T16:30:10.117Z,16.77
2022-12-03T16:35:13.639Z,16.73
2022-12-03T16:40:17.091Z,16.69
2022-12-03T16:45:51.468Z,16.72
2022-12-03T16:50:55.055Z,16.40
2022-12-03T16:55:58.560Z,16.31
2022-12-03T17:01:03.528Z,16.33
2022-12-03T17:06:07.338Z,16.44
2022-12-03T17:11:10.763Z,16.29
2022-12-03T17:16:16.156Z,16.29
2022-12-03T17:21:19.570Z,16.35
2022-12-03T17:26:22.963Z,16.46
2022-12-03T17:31:27.802Z,16.43
2022-12-03T17:36:31.229Z,16.38
2022-12-03T17:41:34.601Z,16.24
2022-12-03T17:46:39.429Z,16.32
2022-12-03T17:51:42.890Z,16.27
2022-12-03T17:56:46.482Z,16.29
2022-12-03T18:01:51.321Z,16.28
2022-12-03T18:07:00.527Z,16.16
2022-12-03T18:12:05.774Z,16.21
2022-12-03T18:17:10.797Z,16.18
2022-12-03T18:22:14.356Z,16.24
2022-12-03T18:27:17.738Z,16.20
2022-12-03T18:32:30.253Z,16.25
2022-12-03T18:37:34.255Z,16.23
2022-12-03T18:42:37.637Z,16.21
2022-12-03T18:47:42.461Z,16.17
2022-12-03T18:52:45.910Z,16.24
2022-12-03T18:57:49.261Z,16.24
2022-12-03T19:03:03.168Z,16.23
2022-12-03T19:08:14.425Z,16.16
2022-12-03T19:13:17.924Z,16.08
2022-12-03T19:18:22.730Z,16.16
2022-12-03T19:23:26.168Z,16.05
2022-12-03T19:28:30.177Z,16.14
2022-12-03T19:33:35.621Z,16.16
2022-12-03T19:38:39.656Z,16.01
2022-12-03T19:43:43.101Z,15.92
2022-12-03T19:48:48.202Z,15.94
2022-12-03T19:53:51.620Z,16.00
2022-12-03T19:58:56.232Z,15.85
2022-12-03T20:04:02.730Z,15.86
2022-12-03T20:09:08.876Z,15.84
2022-12-03T20:14:14.165Z,15.72
2022-12-03T20:19:19.298Z,15.83
2022-12-03T20:24:22.682Z,15.76
2022-12-03T20:29:26.060Z,15.81
2022-12-03T20:34:30.837Z,15.78
2022-12-03T20:39:34.284Z,15.73
2022-12-03T20:44:38.625Z,15.77
2022-12-03T20:49:43.429Z,15.69
2022-12-03T20:54:46.825Z,15.67
2022-12-03T20:59:50.397Z,15.60
2022-12-03T21:04:55.504Z,15.64
2022-12-03T21:09:58.957Z,15.53
2022-12-03T21:15:02.471Z,15.53
2022-12-03T21:20:08.649Z,15.59
2022-12-03T21:25:12.131Z,15.49
2022-12-03T21:30:16.295Z,15.48
2022-12-03T21:35:21.196Z,15.49
2022-12-03T21:40:24.792Z,15.47
2022-12-03T21:45:28.270Z,15.53
2022-12-03T21:50:33.208Z,15.47
2022-12-03T21:55:36.746Z,15.50
2022-12-03T22:00:40.161Z,15.43
2022-12-03T22:05:45.111Z,15.45
2022-12-03T22:10:48.592Z,15.36
2022-12-03T22:15:52.144Z,15.38
2022-12-03T22:20:57.059Z,15.44
2022-12-03T22:26:03.288Z,15.34
2022-12-03T22:31:07.665Z,15.25
2022-12-03T22:36:20.126Z,15.37
2022-12-03T22:41:24.728Z,15.35
2022-12-03T22:46:28.251Z,15.39
2022-12-03T22:51:33.121Z,15.58
2022-12-03T22:56:37.578Z,15.49
2022-12-03T23:01:41.928Z,15.59
2022-12-03T23:06:46.837Z,15.27
2022-12-03T23:11:50.262Z,15.41
2022-12-03T23:16:53.804Z,15.42
2022-12-03T23:21:59.358Z,15.36
2022-12-03T23:27:02.835Z,15.45
2022-12-03T23:32:06.399Z,15.48
2022-12-03T23:37:11.255Z,15.48
2022-12-03T23:42:14.910Z,15.46
2022-12-03T23:47:18.430Z,15.48
2022-12-03T23:52:23.355Z,15.34
2022-12-03T23:57:26.857Z,15.28
